Time;durP1;ratioP1;P1;durP2;ratioP2;P2;SDS_P1;SDS_P2;PMS_P1;PMS_P2;Temp;Humidity;BMP_temperature;BMP_pressure;BME280_temperature;BME280_humidity;BME280_pressure;Samples;Min_cycle;Max_cycle;Signal;HPM_P1;HPM_P2
2023/02/27 00:01:51;;;;;;;2.50;1.23;;;1.50;99.90;;;;;;5100597;28;20415;-62
2023/02/27 00:04:18;;;;;;;3.30;1.70;;;1.50;99.90;;;;;;5100350;28;20451;-60
2023/02/27 00:06:45;;;;;;;1.70;1.30;;;1.50;99.90;;;;;;5100023;28;20457;-56
2023/02/27 00:09:12;;;;;;;2.53;1.43;;;1.50;99.90;;;;;;5100019;28;20469;-63
2023/02/27 00:11:39;;;;;;;2.63;1.67;;;1.50;99.90;;;;;;5100076;28;20481;-63
2023/02/27 00:14:07;;;;;;;1.60;0.87;;;1.40;99.90;;;;;;5099207;28;20462;-63
2023/02/27 00:16:34;;;;;;;2.30;1.60;;;1.40;99.90;;;;;;5099505;28;20466;-62
2023/02/27 00:19:03;;;;;;;2.00;1.53;;;1.30;99.90;;;;;;5099243;28;20478;-60
2023/02/27 00:21:31;;;;;;;4.63;1.37;;;1.30;99.90;;;;;;5098504;28;20442;-61
2023/02/27 00:23:58;;;;;;;3.93;1.20;;;1.30;99.90;;;;;;5099466;28;20426;-63
2023/02/27 00:26:25;;;;;;;2.00;1.20;;;1.30;99.90;;;;;;5099171;28;20446;-66
2023/02/27 00:28:52;;;;;;;3.33;1.93;;;1.30;99.90;;;;;;5098593;28;20445;-62
2023/02/27 00:31:21;;;;;;;4.23;1.77;;;1.30;99.90;;;;;;5098600;28;20434;-62
2023/02/27 00:33:48;;;;;;;1.93;1.43;;;1.30;99.90;;;;;;5099128;28;20475;-61
2023/02/27 00:36:15;;;;;;;2.77;1.17;;;1.30;99.90;;;;;;5098623;28;20437;-60
2023/02/27 00:38:42;;;;;;;4.40;1.03;;;1.30;99.90;;;;;;5098189;28;20485;-60
2023/02/27 00:41:09;;;;;;;1.33;1.10;;;1.20;99.90;;;;;;5098034;28;20450;-64
2023/02/27 00:43:38;;;;;;;1.77;1.40;;;1.20;99.90;;;;;;5097979;28;20431;-64
2023/02/27 00:46:09;;;;;;;1.17;0.90;;;1.20;99.90;;;;;;5098047;28;20434;-64
2023/02/27 00:48:37;;;;;;;1.53;1.43;;;1.20;99.90;;;;;;5098194;28;20450;-59
2023/02/27 00:51:04;;;;;;;1.27;1.00;;;1.20;99.90;;;;;;5098414;28;20442;-63
2023/02/27 00:53:31;;;;;;;2.17;0.90;;;1.30;99.90;;;;;;5097846;28;20419;-63
2023/02/27 00:56:01;;;;;;;1.53;0.97;;;1.20;99.90;;;;;;5097547;28;20466;-63
2023/02/27 00:58:28;;;;;;;1.87;1.60;;;1.20;99.90;;;;;;5097273;28;20477;-63
2023/02/27 01:00:58;;;;;;;2.17;1.43;;;1.20;99.90;;;;;;5096843;28;20458;-64
2023/02/27 01:03:26;;;;;;;2.13;1.07;;;1.20;99.90;;;;;;5097122;28;20438;-61
2023/02/27 01:05:54;;;;;;;2.90;1.53;;;1.20;99.90;;;;;;5097198;28;20434;-63
2023/02/27 01:08:21;;;;;;;3.23;1.30;;;1.20;99.90;;;;;;5098110;28;20438;-63
2023/02/27 01:10:48;;;;;;;2.17;1.73;;;1.20;99.90;;;;;;5098085;28;20435;-63
2023/02/27 01:13:14;;;;;;;2.60;1.33;;;1.20;99.90;;;;;;5098198;28;20426;-61
2023/02/27 01:15:41;;;;;;;3.00;1.63;;;1.20;99.90;;;;;;5096987;28;20502;-64
2023/02/27 01:18:11;;;;;;;1.87;1.33;;;1.10;99.90;;;;;;5096864;28;20486;-63
2023/02/27 01:20:44;;;;;;;2.40;1.30;;;0.90;99.90;;;;;;5097538;28;20445;-64
2023/02/27 01:23:12;;;;;;;1.93;1.30;;;1.10;99.90;;;;;;5097692;28;20459;-64
2023/02/27 01:25:39;;;;;;;2.00;1.07;;;1.00;99.90;;;;;;5097333;28;20411;-62
2023/02/27 01:28:06;;;;;;;1.87;0.87;;;1.10;99.90;;;;;;5096609;28;20462;-63
2023/02/27 01:30:32;;;;;;;2.43;1.07;;;1.10;99.90;;;;;;5096989;28;20434;-62
2023/02/27 01:32:59;;;;;;;1.50;0.93;;;1.00;99.90;;;;;;5097210;28;20425;-63
2023/02/27 01:35:26;;;;;;;5.27;1.60;;;1.00;99.90;;;;;;5096294;28;20459;-65
2023/02/27 01:37:55;;;;;;;1.47;1.03;;;1.00;99.90;;;;;;5096395;28;20466;-63
2023/02/27 01:40:23;;;;;;;2.23;1.20;;;1.00;99.90;;;;;;5096975;28;20506;-63
2023/02/27 01:42:50;;;;;;;2.90;1.20;;;1.00;99.90;;;;;;5096869;28;20450;-63
2023/02/27 01:45:40;;;;;;;1.10;1.00;;;1.00;99.90;;;;;;5097030;28;20996;-66
2023/02/27 01:48:13;;;;;;;4.90;1.57;;;1.00;99.90;;;;;;5097283;28;20433;-63
2023/02/27 01:50:50;;;;;;;1.97;1.17;;;0.90;99.90;;;;;;5097216;28;20446;-63
2023/02/27 01:53:24;;;;;;;1.20;1.00;;;0.90;99.90;;;;;;5097498;28;20483;-65
2023/02/27 01:55:55;;;;;;;1.23;1.13;;;1.00;99.90;;;;;;5097151;28;20425;-65
2023/02/27 01:58:22;;;;;;;1.50;0.90;;;0.90;99.90;;;;;;5097681;28;20492;-61
2023/02/27 02:00:51;;;;;;;7.63;3.37;;;1.00;99.90;;;;;;5097504;28;20446;-63
2023/02/27 02:03:24;;;;;;;2.60;1.43;;;0.90;99.90;;;;;;5096460;28;20466;-61
2023/02/27 02:05:54;;;;;;;1.97;1.17;;;0.90;99.90;;;;;;5096162;28;20427;-63
2023/02/27 02:08:23;;;;;;;2.00;1.13;;;0.90;99.90;;;;;;5097099;28;20466;-62
2023/02/27 02:10:51;;;;;;;1.63;1.30;;;0.90;99.90;;;;;;5096257;28;20429;-62
2023/02/27 02:13:22;;;;;;;1.30;1.10;;;2.00;99.90;;;;;;5095526;28;20458;-63
2023/02/27 02:16:13;;;;;;;5.70;2.27;;;0.80;99.90;;;;;;5095168;28;20453;-64
2023/02/27 02:18:55;;;;;;;1.30;1.17;;;0.80;99.90;;;;;;5096254;28;20431;-62
2023/02/27 02:22:04;;;;;;;1.93;0.80;;;0.80;99.90;;;;;;5096763;28;20410;-62
2023/02/27 02:25:09;;;;;;;3.13;1.50;;;0.80;99.90;;;;;;5097207;28;20536;-63
2023/02/27 02:27:48;;;;;;;5.40;1.40;;;0.70;99.90;;;;;;5094469;28;20454;-64
2023/02/27 02:30:46;;;;;;;2.10;1.63;;;0.70;99.90;;;;;;5095703;28;20463;-62
2023/02/27 02:33:55;;;;;;;1.50;1.30;;;0.70;99.90;;;;;;5094752;28;20442;-63
2023/02/27 02:37:05;;;;;;;4.27;1.40;;;0.70;99.90;;;;;;5089992;28;20493;-60
2023/02/27 02:39:55;;;;;;;2.00;1.00;;;0.70;99.90;;;;;;5095170;28;20474;-63
2023/02/27 02:42:27;;;;;;;2.00;1.60;;;0.70;99.90;;;;;;5094574;28;20489;-63
2023/02/27 02:45:04;;;;;;;1.50;1.40;;;0.70;99.90;;;;;;5094434;28;20403;-64
2023/02/27 02:47:40;;;;;;;7.63;1.40;;;0.70;99.90;;;;;;5095089;28;20537;-65
2023/02/27 02:50:12;;;;;;;2.90;1.53;;;0.70;99.90;;;;;;5094001;28;20423;-64
2023/02/27 02:52:56;;;;;;;2.43;0.90;;;0.70;99.90;;;;;;5094612;28;20504;-62
2023/02/27 02:55:30;;;;;;;1.80;0.90;;;0.70;99.90;;;;;;5095283;28;20450;-64
2023/02/27 02:58:03;;;;;;;12.23;2.00;;;0.60;99.90;;;;;;5095357;28;20462;-64
2023/02/27 03:00:35;;;;;;;4.60;1.63;;;0.70;99.90;;;;;;5095193;28;20485;-63
2023/02/27 03:03:08;;;;;;;4.87;1.50;;;0.70;99.90;;;;;;5095529;28;20426;-64
2023/02/27 03:05:41;;;;;;;4.90;1.53;;;0.70;99.90;;;;;;5095207;28;20458;-64
2023/02/27 03:08:12;;;;;;;1.80;1.70;;;0.80;99.90;;;;;;5095103;28;20418;-65
2023/02/27 03:10:49;;;;;;;2.70;1.40;;;0.80;99.90;;;;;;5094783;28;20506;-62
2023/02/27 03:13:24;;;;;;;1.67;1.10;;;0.80;99.90;;;;;;5095756;28;20451;-63
2023/02/27 03:15:58;;;;;;;2.30;1.37;;;0.90;99.90;;;;;;5096119;28;20462;-64
2023/02/27 03:18:32;;;;;;;2.60;1.40;;;0.90;99.90;;;;;;5099434;28;20423;-63
2023/02/27 03:21:03;;;;;;;2.20;1.10;;;0.90;99.90;;;;;;5099808;28;20530;-66
2023/02/27 03:23:34;;;;;;;1.50;1.13;;;0.90;99.90;;;;;;5100813;28;20418;-66
2023/02/27 03:26:03;;;;;;;2.93;1.20;;;0.80;99.90;;;;;;5100325;28;20466;-61
2023/02/27 03:28:35;;;;;;;2.57;1.47;;;0.80;99.90;;;;;;5100587;28;20423;-64
2023/02/27 03:31:12;;;;;;;2.70;1.20;;;0.80;99.90;;;;;;5100790;28;20469;-62
2023/02/27 03:33:46;;;;;;;2.73;1.40;;;0.70;99.90;;;;;;5100845;28;20433;-64
2023/02/27 03:36:26;;;;;;;2.40;2.10;;;0.70;99.90;;;;;;5100494;28;20415;-64
2023/02/27 03:39:00;;;;;;;1.50;1.33;;;0.70;99.90;;;;;;5099295;28;20450;-63
2023/02/27 03:41:36;;;;;;;1.60;0.90;;;0.70;99.90;;;;;;5100132;28;20458;-64
2023/02/27 03:44:10;;;;;;;1.50;1.13;;;0.70;99.90;;;;;;5099257;28;20429;-63
2023/02/27 03:46:37;;;;;;;2.53;1.77;;;0.70;99.90;;;;;;5100081;28;20441;-63
2023/02/27 03:49:05;;;;;;;1.63;1.30;;;0.70;99.90;;;;;;5100074;28;20449;-63
2023/02/27 03:51:33;;;;;;;1.97;1.03;;;0.70;99.90;;;;;;5099342;28;20439;-64
2023/02/27 03:54:12;;;;;;;4.30;1.60;;;0.70;99.90;;;;;;5099636;28;20447;-61
2023/02/27 03:56:44;;;;;;;1.80;1.30;;;0.60;99.90;;;;;;5099301;28;20430;-63
2023/02/27 03:59:14;;;;;;;1.80;1.33;;;0.70;99.90;;;;;;5100030;28;20454;-62
2023/02/27 04:01:43;;;;;;;5.97;2.50;;;0.70;99.90;;;;;;5100240;28;20438;-61
2023/02/27 04:04:13;;;;;;;2.63;1.37;;;0.70;99.90;;;;;;5099787;28;20414;-62
2023/02/27 04:09:47;;;;;;;2.60;2.40;;;0.60;99.90;;;;;;5098800;28;20417;-64
2023/02/27 04:12:31;;;;;;;2.60;1.30;;;0.60;99.90;;;;;;5098062;28;20442;-60
2023/02/27 04:15:10;;;;;;;2.70;1.00;;;0.60;99.90;;;;;;5096736;28;20450;-64
2023/02/27 04:17:48;;;;;;;8.43;1.30;;;0.60;99.90;;;;;;5095966;28;20458;-64
2023/02/27 04:20:43;;;;;;;1.77;1.30;;;0.60;99.90;;;;;;5096714;28;20467;-64
2023/02/27 04:23:20;;;;;;;3.60;2.13;;;0.70;99.90;;;;;;5095973;28;20467;-64
2023/02/27 04:26:04;;;;;;;1.60;1.07;;;0.60;99.90;;;;;;5096639;28;20438;-62
2023/02/27 04:28:39;;;;;;;2.00;1.07;;;0.60;99.90;;;;;;5095914;28;20485;-64
2023/02/27 04:31:16;;;;;;;2.00;1.33;;;0.60;99.90;;;;;;5096944;28;20453;-63
2023/02/27 04:33:48;;;;;;;9.90;2.40;;;0.70;99.90;;;;;;5095963;28;20501;-64
2023/02/27 04:36:21;;;;;;;1.33;1.03;;;0.70;99.90;;;;;;5097571;28;20462;-64
2023/02/27 04:38:58;;;;;;;2.90;1.73;;;0.60;99.90;;;;;;5096773;28;20478;-64
2023/02/27 04:41:29;;;;;;;1.73;1.47;;;0.60;99.90;;;;;;5096780;28;20477;-63
2023/02/27 04:43:58;;;;;;;6.53;1.20;;;0.60;99.90;;;;;;5096735;28;20501;-64
2023/02/27 04:46:28;;;;;;;2.70;1.73;;;0.60;99.90;;;;;;5097319;28;20469;-64
2023/02/27 04:49:00;;;;;;;1.20;1.10;;;0.60;99.90;;;;;;5096578;28;20427;-63
2023/02/27 04:51:32;;;;;;;1.63;1.53;;;0.60;99.90;;;;;;5097637;28;20415;-63
2023/02/27 04:54:06;;;;;;;1.73;1.47;;;0.60;99.90;;;;;;5097616;28;20426;-62
2023/02/27 04:56:37;;;;;;;2.30;1.73;;;0.60;99.90;;;;;;5097372;28;20493;-64
2023/02/27 04:59:10;;;;;;;5.33;2.07;;;0.50;99.90;;;;;;5096962;28;20455;-64
2023/02/27 05:01:41;;;;;;;2.40;1.73;;;0.50;99.90;;;;;;5096693;28;20494;-61
2023/02/27 05:04:11;;;;;;;2.40;1.20;;;0.40;99.90;;;;;;5096768;28;20442;-61
2023/02/27 05:06:42;;;;;;;1.37;1.20;;;0.40;99.90;;;;;;5095773;28;20466;-63
2023/02/27 05:09:22;;;;;;;2.60;1.27;;;0.40;99.90;;;;;;5096117;28;20423;-63
2023/02/27 05:11:57;;;;;;;1.97;1.17;;;0.30;99.90;;;;;;5096441;28;20473;-60
2023/02/27 05:14:31;;;;;;;2.40;1.43;;;0.30;99.90;;;;;;5096323;28;20422;-64
2023/02/27 05:19:49;;;;;;;1.90;1.40;;;0.20;99.90;;;;;;5094918;28;20577;-64
2023/02/27 05:22:36;;;;;;;2.80;1.30;;;0.20;99.90;;;;;;5096478;28;20443;-60
2023/02/27 05:25:10;;;;;;;1.20;1.10;;;0.20;99.90;;;;;;5095912;28;20434;-63
2023/02/27 05:27:49;;;;;;;2.13;1.80;;;0.20;99.90;;;;;;5096348;28;20446;-64
2023/02/27 05:30:37;;;;;;;1.90;1.63;;;0.20;99.90;;;;;;5096920;28;20425;-64
2023/02/27 05:33:17;;;;;;;2.00;1.70;;;0.20;99.90;;;;;;5096214;28;20422;-60
2023/02/27 05:36:00;;;;;;;1.80;1.70;;;0.20;99.90;;;;;;5095790;28;20427;-63
2023/02/27 05:38:34;;;;;;;3.20;2.13;;;0.20;99.90;;;;;;5096803;28;20457;-61
2023/02/27 05:41:05;;;;;;;2.87;1.90;;;0.10;99.90;;;;;;5096168;28;20505;-63
2023/02/27 05:43:36;;;;;;;1.17;1.07;;;0.10;99.90;;;;;;5096479;28;20430;-65
2023/02/27 05:46:10;;;;;;;2.93;1.70;;;0.10;99.90;;;;;;5096061;28;20455;-60
2023/02/27 05:49:11;;;;;;;1.10;0.97;;;0.00;99.90;;;;;;5097036;28;20453;-61
2023/02/27 05:51:46;;;;;;;10.70;3.53;;;0.00;99.90;;;;;;5094129;28;20543;-65
2023/02/27 05:54:21;;;;;;;2.50;1.90;;;-0.10;99.90;;;;;;5095636;28;20430;-64
2023/02/27 05:56:51;;;;;;;2.60;1.63;;;-0.10;99.90;;;;;;5096114;28;20607;-63
2023/02/27 05:59:25;;;;;;;3.10;2.10;;;-0.10;99.90;;;;;;5096392;28;20454;-64
2023/02/27 06:01:54;;;;;;;1.97;1.33;;;0.00;99.90;;;;;;5095703;28;20512;-64
2023/02/27 06:04:21;;;;;;;3.83;1.47;;;0.00;99.90;;;;;;5096251;28;20427;-63
2023/02/27 06:06:48;;;;;;;3.20;2.57;;;0.00;99.90;;;;;;5096614;28;20497;-60
2023/02/27 06:09:16;;;;;;;1.73;1.23;;;0.00;99.90;;;;;;5095508;28;20481;-62
2023/02/27 06:11:43;;;;;;;1.73;1.33;;;0.10;99.90;;;;;;5095613;28;20445;-62
2023/02/27 06:14:10;;;;;;;1.70;1.30;;;0.10;99.90;;;;;;5094692;28;20525;-63
2023/02/27 06:16:39;;;;;;;1.60;1.37;;;0.10;99.90;;;;;;5095359;28;20462;-62
2023/02/27 06:19:07;;;;;;;2.20;1.60;;;0.10;99.90;;;;;;5095628;28;20494;-65
2023/02/27 06:21:34;;;;;;;2.17;1.40;;;0.10;99.90;;;;;;5095112;28;20478;-64
2023/02/27 06:24:00;;;;;;;2.93;2.57;;;0.10;99.90;;;;;;5095332;28;20449;-65
2023/02/27 06:26:27;;;;;;;1.90;1.30;;;0.20;99.90;;;;;;5095279;28;20440;-64
2023/02/27 06:28:54;;;;;;;4.03;2.13;;;0.20;99.90;;;;;;5094972;28;20465;-64
2023/02/27 06:31:21;;;;;;;4.20;1.97;;;0.30;99.90;;;;;;5095517;28;20450;-64
2023/02/27 06:33:48;;;;;;;2.33;1.40;;;0.20;99.90;;;;;;5095136;28;20453;-65
2023/02/27 06:36:16;;;;;;;17.37;1.87;;;0.30;99.90;;;;;;5095000;28;20485;-65
2023/02/27 06:38:45;;;;;;;5.07;2.70;;;0.30;99.90;;;;;;5094472;28;20442;-63
2023/02/27 06:41:12;;;;;;;2.20;1.67;;;0.40;99.90;;;;;;5095950;28;20482;-62
2023/02/27 06:43:39;;;;;;;2.80;1.90;;;0.40;99.90;;;;;;5097066;28;20460;-62
2023/02/27 06:46:06;;;;;;;3.93;2.80;;;0.50;99.90;;;;;;5096752;28;20473;-65
2023/02/27 06:48:33;;;;;;;5.47;2.33;;;0.60;99.90;;;;;;5095995;28;20468;-60
2023/02/27 06:51:00;;;;;;;2.70;1.87;;;0.60;99.90;;;;;;5096241;28;20434;-64
2023/02/27 06:53:42;;;;;;;2.90;2.13;;;0.70;99.90;;;;;;5098929;28;20466;-62
2023/02/27 06:56:09;;;;;;;2.03;1.80;;;0.80;99.90;;;;;;5098259;28;20426;-64
2023/02/27 06:58:42;;;;;;;3.80;2.30;;;0.80;99.90;;;;;;5098523;28;20470;-63
2023/02/27 07:01:10;;;;;;;2.50;1.50;;;0.90;99.90;;;;;;5099091;28;20495;-63
2023/02/27 07:03:38;;;;;;;9.50;2.60;;;0.90;99.90;;;;;;5099285;28;20497;-64
2023/02/27 07:06:06;;;;;;;3.47;2.10;;;1.00;99.90;;;;;;5098770;28;20450;-63
2023/02/27 07:08:34;;;;;;;14.73;2.37;;;1.10;99.90;;;;;;5097847;28;20480;-64
2023/02/27 07:11:01;;;;;;;2.57;1.50;;;1.20;99.90;;;;;;5098538;28;20478;-64
2023/02/27 07:13:28;;;;;;;6.30;2.40;;;1.20;99.90;;;;;;5098537;28;20450;-64
2023/02/27 07:15:55;;;;;;;5.40;2.30;;;1.30;99.90;;;;;;5098356;28;20437;-63
2023/02/27 07:18:23;;;;;;;3.77;2.50;;;1.50;99.90;;;;;;5098436;28;20477;-63
2023/02/27 07:20:51;;;;;;;7.00;3.20;;;1.40;99.90;;;;;;5098406;28;20500;-63
2023/02/27 07:23:19;;;;;;;2.80;1.63;;;1.50;99.90;;;;;;5098259;28;20429;-61
2023/02/27 07:25:48;;;;;;;3.17;2.30;;;1.50;99.90;;;;;;5098373;28;20462;-63
2023/02/27 07:28:15;;;;;;;4.20;2.77;;;1.60;99.90;;;;;;5098493;28;20462;-66
2023/02/27 07:30:44;;;;;;;3.57;2.80;;;1.60;99.90;;;;;;5098418;28;20439;-63
2023/02/27 07:33:11;;;;;;;3.20;1.90;;;1.70;99.90;;;;;;5098429;28;20426;-63
2023/02/27 07:35:38;;;;;;;2.07;1.20;;;1.70;99.90;;;;;;5098751;28;20443;-63
2023/02/27 07:38:05;;;;;;;8.90;2.73;;;1.70;99.90;;;;;;5098759;28;20458;-63
2023/02/27 07:40:31;;;;;;;3.87;2.57;;;1.70;99.90;;;;;;5098299;28;20462;-65
2023/02/27 07:43:00;;;;;;;2.03;1.53;;;1.70;99.90;;;;;;5099847;28;20469;-63
2023/02/27 07:45:28;;;;;;;2.27;1.40;;;1.80;99.90;;;;;;5099343;28;20425;-63
2023/02/27 07:47:55;;;;;;;4.87;1.97;;;1.80;99.90;;;;;;5097672;28;20471;-63
2023/02/27 07:50:22;;;;;;;5.63;2.00;;;1.80;99.90;;;;;;5098625;28;20474;-65
2023/02/27 07:52:49;;;;;;;3.90;2.13;;;1.80;99.90;;;;;;5099241;28;20465;-64
2023/02/27 07:55:16;;;;;;;2.87;1.90;;;1.90;99.90;;;;;;5098629;28;20434;-62
2023/02/27 07:57:44;;;;;;;3.53;1.77;;;1.90;99.90;;;;;;5099610;28;20502;-63
2023/02/27 08:00:13;;;;;;;5.93;2.97;;;1.90;99.90;;;;;;5098376;28;20462;-63
2023/02/27 08:02:40;;;;;;;4.63;2.00;;;2.00;99.90;;;;;;5098460;28;20426;-63
2023/02/27 08:05:08;;;;;;;4.40;2.30;;;2.10;99.90;;;;;;5098845;28;20469;-67
2023/02/27 08:07:36;;;;;;;1.63;1.37;;;2.10;99.90;;;;;;5098311;28;20447;-62
2023/02/27 08:10:03;;;;;;;4.97;3.37;;;2.10;99.90;;;;;;5098294;28;20446;-67
2023/02/27 08:12:30;;;;;;;3.00;2.07;;;2.20;99.90;;;;;;5098859;28;20453;-65
2023/02/27 08:14:57;;;;;;;2.77;2.00;;;2.20;99.90;;;;;;5098289;28;20427;-64
2023/02/27 08:17:26;;;;;;;5.63;2.57;;;2.30;99.90;;;;;;5099113;28;20426;-64
2023/02/27 08:19:53;;;;;;;6.60;2.97;;;2.50;99.90;;;;;;5099006;28;20426;-63
2023/02/27 08:22:25;;;;;;;3.77;2.30;;;2.50;99.90;;;;;;5098000;28;20520;-63
2023/02/27 08:24:52;;;;;;;10.97;2.80;;;2.60;99.90;;;;;;5097727;28;20428;-63
2023/02/27 08:27:28;;;;;;;3.93;2.53;;;2.70;99.90;;;;;;5097834;28;20455;-64
2023/02/27 08:29:55;;;;;;;4.80;2.30;;;2.80;99.90;;;;;;5097655;28;20418;-64
2023/02/27 08:32:22;;;;;;;8.30;3.77;;;2.90;99.90;;;;;;5098414;28;20434;-64
2023/02/27 08:34:50;;;;;;;8.57;2.87;;;3.00;99.90;;;;;;5098360;28;20434;-65
2023/02/27 08:37:17;;;;;;;5.70;2.50;;;3.00;99.90;;;;;;5098804;28;20426;-61
2023/02/27 08:39:44;;;;;;;4.70;2.10;;;3.20;99.90;;;;;;5098652;28;20423;-62
2023/02/27 08:42:11;;;;;;;7.17;3.60;;;3.30;99.90;;;;;;5098915;28;20512;-64
2023/02/27 08:44:37;;;;;;;3.53;2.93;;;3.40;99.90;;;;;;5099028;28;20450;-62
2023/02/27 08:47:04;;;;;;;7.03;2.97;;;3.60;99.90;;;;;;5099226;28;20437;-62
2023/02/27 08:49:31;;;;;;;5.00;3.40;;;3.70;99.90;;;;;;5098477;28;20467;-60
2023/02/27 08:52:00;;;;;;;3.07;2.60;;;3.80;99.90;;;;;;5098884;28;20453;-62
2023/02/27 08:54:27;;;;;;;3.57;2.83;;;4.00;99.90;;;;;;5097628;28;20462;-63
2023/02/27 08:56:53;;;;;;;3.03;2.47;;;4.10;99.90;;;;;;5098302;28;20431;-63
2023/02/27 08:59:20;;;;;;;12.60;3.70;;;4.30;99.90;;;;;;5097949;28;20430;-64
2023/02/27 09:01:47;;;;;;;5.87;3.60;;;4.40;99.90;;;;;;5097609;28;20517;-63
2023/02/27 09:04:16;;;;;;;6.40;3.00;;;4.60;99.90;;;;;;5097723;28;20470;-64
2023/02/27 09:06:43;;;;;;;6.93;3.40;;;4.70;99.90;;;;;;5098060;28;20486;-64
2023/02/27 09:09:11;;;;;;;5.30;2.83;;;4.80;99.90;;;;;;5097159;28;20883;-62
2023/02/27 09:11:40;;;;;;;5.73;3.07;;;5.00;99.90;;;;;;5097574;28;20466;-62
2023/02/27 09:14:07;;;;;;;6.73;2.97;;;5.10;99.90;;;;;;5097796;28;20429;-63
2023/02/27 09:16:34;;;;;;;4.73;2.60;;;5.10;99.90;;;;;;5098075;28;20439;-63
2023/02/27 09:19:04;;;;;;;8.37;3.40;;;5.20;99.90;;;;;;5097825;28;20426;-64
2023/02/27 09:21:31;;;;;;;4.27;3.00;;;5.20;99.90;;;;;;5096898;28;20474;-63
2023/02/27 09:23:58;;;;;;;7.13;3.27;;;5.30;99.90;;;;;;5097510;28;20458;-64
2023/02/27 09:26:27;;;;;;;7.00;3.30;;;5.30;99.90;;;;;;5097254;28;20449;-64
2023/02/27 09:28:54;;;;;;;5.50;3.30;;;5.40;99.90;;;;;;5096303;28;20466;-63
2023/02/27 09:31:24;;;;;;;8.40;3.50;;;5.50;99.90;;;;;;5098138;28;20441;-64
2023/02/27 09:33:54;;;;;;;4.47;2.60;;;5.50;99.90;;;;;;5096651;28;20469;-64
2023/02/27 09:36:23;;;;;;;5.93;3.00;;;5.50;99.90;;;;;;5097071;28;20554;-63
2023/02/27 09:38:50;;;;;;;3.03;2.47;;;5.40;99.90;;;;;;5098236;28;20442;-64
2023/02/27 09:41:52;;;;;;;3.83;2.40;;;5.40;99.90;;;;;;5097061;28;20478;-64
2023/02/27 09:44:37;;;;;;;3.70;2.77;;;5.40;99.90;;;;;;5096695;28;20426;-65
2023/02/27 09:47:09;;;;;;;2.70;1.90;;;5.30;99.90;;;;;;5095920;28;20447;-64
2023/02/27 09:49:46;;;;;;;5.53;2.70;;;5.30;99.90;;;;;;5097112;28;20430;-62
2023/02/27 09:52:14;;;;;;;6.00;2.57;;;5.20;99.90;;;;;;5096430;28;20781;-64
2023/02/27 09:54:41;;;;;;;7.37;1.80;;;5.20;99.90;;;;;;5096945;28;20465;-65
2023/02/27 09:57:18;;;;;;;23.53;8.30;;;5.20;99.90;;;;;;5097870;28;20939;-62
2023/02/27 09:59:51;;;;;;;5.30;2.73;;;5.30;99.90;;;;;;5098206;28;20483;-63
2023/02/27 10:02:33;;;;;;;5.13;2.17;;;5.40;99.90;;;;;;5098036;28;20490;-63
2023/02/27 10:05:08;;;;;;;5.93;2.23;;;5.40;99.90;;;;;;5097831;28;20483;-63
2023/02/27 10:07:46;;;;;;;6.97;3.40;;;5.50;99.90;;;;;;5097631;28;20469;-64
2023/02/27 10:10:23;;;;;;;4.07;2.03;;;5.60;99.90;;;;;;5097881;28;20415;-63
2023/02/27 10:13:08;;;;;;;5.20;1.90;;;5.70;99.90;;;;;;5097239;28;20454;-62
2023/02/27 10:15:42;;;;;;;3.40;2.67;;;5.70;99.90;;;;;;5097276;28;20446;-66
2023/02/27 10:18:17;;;;;;;6.47;2.57;;;5.70;99.90;;;;;;5096825;28;20419;-63
2023/02/27 10:20:53;;;;;;;8.30;2.10;;;5.90;99.90;;;;;;5096885;28;20438;-64
2023/02/27 10:23:25;;;;;;;2.70;2.17;;;6.00;99.90;;;;;;5096736;28;20433;-63
2023/02/27 10:25:54;;;;;;;2.50;1.90;;;6.30;99.90;;;;;;5096974;28;20422;-64
2023/02/27 10:28:23;;;;;;;4.03;1.70;;;6.50;99.90;;;;;;5100665;28;20430;-63
2023/02/27 10:30:51;;;;;;;3.67;2.13;;;6.80;99.90;;;;;;5100497;28;20474;-64
2023/02/27 10:33:25;;;;;;;12.37;2.30;;;6.90;99.90;;;;;;5100552;28;20484;-63
2023/02/27 10:35:57;;;;;;;3.53;2.20;;;7.00;99.90;;;;;;5100208;28;20463;-64
2023/02/27 10:38:32;;;;;;;4.00;2.60;;;7.10;99.90;;;;;;5100171;28;20472;-64
2023/02/27 10:41:01;;;;;;;4.07;1.83;;;7.10;99.90;;;;;;5099227;28;20461;-63
2023/02/27 10:43:30;;;;;;;2.33;2.10;;;7.10;99.90;;;;;;5099301;28;20541;-63
2023/02/27 10:46:01;;;;;;;2.80;1.43;;;7.00;99.90;;;;;;5100112;28;20453;-65
2023/02/27 10:48:28;;;;;;;3.40;1.73;;;6.90;99.90;;;;;;5100102;28;20430;-61
2023/02/27 10:51:24;;;;;;;1.97;1.43;;;6.80;99.90;;;;;;5100001;28;20450;-62
2023/02/27 10:53:52;;;;;;;2.67;1.77;;;6.80;99.90;;;;;;5100688;28;20411;-60
2023/02/27 10:56:24;;;;;;;2.20;1.77;;;6.80;99.90;;;;;;5099883;28;20514;-64
2023/02/27 10:59:04;;;;;;;1.40;1.30;;;6.80;99.90;;;;;;5099767;28;20497;-64
2023/02/27 11:01:43;;;;;;;2.27;1.60;;;6.90;99.90;;;;;;5100176;28;20480;-63
2023/02/27 11:04:11;;;;;;;2.37;1.43;;;6.80;99.90;;;;;;5100193;28;20514;-64
2023/02/27 11:06:41;;;;;;;3.17;2.80;;;6.90;99.90;;;;;;5100332;28;20446;-63
2023/02/27 11:09:21;;;;;;;4.40;1.60;;;7.20;99.90;;;;;;5099473;28;20823;-64
2023/02/27 11:11:48;;;;;;;3.80;1.70;;;7.60;99.90;;;;;;5099555;28;20454;-64
2023/02/27 11:14:30;;;;;;;2.10;1.50;;;7.80;98.40;;;;;;5099748;28;20468;-64
2023/02/27 11:16:59;;;;;;;3.40;1.60;;;7.70;97.30;;;;;;5099228;28;20442;-63
2023/02/27 11:19:30;;;;;;;2.73;1.60;;;7.70;96.40;;;;;;5099042;28;20462;-64
2023/02/27 11:22:05;;;;;;;1.50;1.40;;;7.70;96.40;;;;;;5099378;28;20458;-64
2023/02/27 11:24:34;;;;;;;1.77;1.10;;;7.80;94.80;;;;;;5100060;28;20417;-61
2023/02/27 11:27:05;;;;;;;3.47;1.30;;;7.60;93.50;;;;;;5100121;28;20502;-58
2023/02/27 11:29:35;;;;;;;3.73;1.40;;;7.50;92.60;;;;;;5099924;28;20414;-61
2023/02/27 11:32:12;;;;;;;8.63;1.30;;;7.30;91.80;;;;;;5099582;28;20478;-62
2023/02/27 11:34:46;;;;;;;3.03;1.10;;;7.10;93.60;;;;;;5099564;28;20414;-60
2023/02/27 11:37:26;;;;;;;2.67;1.37;;;7.00;93.90;;;;;;5098778;28;20446;-61
2023/02/27 11:40:03;;;;;;;2.40;1.27;;;6.90;95.30;;;;;;5098702;28;20423;-63
2023/02/27 11:42:32;;;;;;;2.60;1.30;;;6.90;96.10;;;;;;5099409;28;20476;-62
2023/02/27 11:45:02;;;;;;;1.40;1.13;;;6.80;95.20;;;;;;5098596;28;20442;-63
2023/02/27 11:47:33;;;;;;;2.47;1.50;;;6.80;93.90;;;;;;5098957;28;20779;-65
2023/02/27 11:50:23;;;;;;;1.77;1.20;;;6.80;92.40;;;;;;5098920;28;20454;-65
2023/02/27 11:52:57;;;;;;;6.10;1.10;;;6.80;91.20;;;;;;5098733;28;20419;-61
2023/02/27 11:55:26;;;;;;;3.13;0.93;;;6.90;92.60;;;;;;5099317;28;20434;-65
2023/02/27 11:58:01;;;;;;;2.40;1.20;;;7.00;90.40;;;;;;5098843;28;20430;-62
2023/02/27 12:00:33;;;;;;;1.77;1.00;;;7.00;90.50;;;;;;5098547;28;20426;-60
2023/02/27 12:03:10;;;;;;;3.37;1.37;;;7.00;90.20;;;;;;5098662;28;20469;-63
2023/02/27 12:05:43;;;;;;;3.50;1.23;;;6.90;91.50;;;;;;5098352;28;20430;-63
2023/02/27 12:08:17;;;;;;;1.20;0.80;;;7.00;91.50;;;;;;5098202;28;20402;-63
2023/02/27 12:10:49;;;;;;;1.10;0.70;;;7.10;91.70;;;;;;5099048;28;20801;-63
2023/02/27 12:13:21;;;;;;;1.70;1.30;;;7.10;90.70;;;;;;5099925;28;20445;-64
2023/02/27 12:15:54;;;;;;;3.13;1.63;;;7.00;90.50;;;;;;5098866;28;20473;-62
2023/02/27 12:18:26;;;;;;;2.90;1.57;;;6.90;91.20;;;;;;5097720;28;20426;-63
2023/02/27 12:20:57;;;;;;;1.60;0.80;;;6.90;91.30;;;;;;5098387;28;20423;-65
2023/02/27 12:23:31;;;;;;;5.23;2.43;;;6.80;91.10;;;;;;5098185;28;20442;-65
2023/02/27 12:26:05;;;;;;;2.80;1.27;;;6.70;91.70;;;;;;5098125;28;20423;-63
2023/02/27 12:28:45;;;;;;;1.77;1.40;;;6.60;93.40;;;;;;5097951;28;20427;-64
2023/02/27 12:31:35;;;;;;;9.53;1.40;;;6.50;95.40;;;;;;5097529;28;20430;-61
2023/02/27 12:34:11;;;;;;;1.30;1.00;;;6.50;94.90;;;;;;5097393;28;20439;-63
2023/02/27 12:36:38;;;;;;;2.90;1.10;;;6.50;93.40;;;;;;5097383;28;20517;-64
2023/02/27 12:39:17;;;;;;;2.03;1.60;;;6.40;93.10;;;;;;5098023;28;20470;-64
2023/02/27 12:42:13;;;;;;;21.97;10.67;;;6.40;93.60;;;;;;5099420;28;20440;-62
2023/02/27 12:44:58;;;;;;;3.90;2.17;;;6.40;93.70;;;;;;5097762;28;20449;-65
2023/02/27 12:47:36;;;;;;;3.73;1.87;;;6.30;92.80;;;;;;5098195;28;20430;-64
2023/02/27 12:50:13;;;;;;;6.37;2.10;;;6.30;93.30;;;;;;5098337;28;20454;-66
2023/02/27 12:52:52;;;;;;;1.20;1.10;;;6.30;92.70;;;;;;5098465;28;20422;-62
2023/02/27 12:55:25;;;;;;;2.40;1.47;;;6.20;92.10;;;;;;5097511;28;20538;-66
2023/02/27 12:58:21;;;;;;;2.10;1.37;;;6.20;91.60;;;;;;5097448;28;20437;-64
2023/02/27 13:00:52;;;;;;;1.50;1.10;;;6.20;91.10;;;;;;5095731;28;20458;-64
2023/02/27 13:03:24;;;;;;;2.97;1.60;;;6.30;91.00;;;;;;5097482;28;20501;-61
2023/02/27 13:06:01;;;;;;;1.70;1.20;;;6.30;89.40;;;;;;5098119;28;20474;-64
2023/02/27 13:09:01;;;;;;;1.30;1.03;;;6.40;89.00;;;;;;5097839;28;20442;-63
2023/02/27 13:11:42;;;;;;;1.50;1.20;;;6.40;88.60;;;;;;5097620;28;20899;-64
2023/02/27 13:14:23;;;;;;;2.27;1.50;;;6.40;86.50;;;;;;5097391;28;20465;-65
2023/02/27 13:16:56;;;;;;;2.57;1.10;;;6.50;86.80;;;;;;5097206;28;20468;-64
2023/02/27 13:19:29;;;;;;;1.10;0.87;;;6.60;85.50;;;;;;5097043;28;20419;-62
2023/02/27 13:22:03;;;;;;;2.20;1.30;;;6.80;85.20;;;;;;5097377;28;20426;-64
2023/02/27 13:24:31;;;;;;;5.23;1.13;;;6.90;82.70;;;;;;5098030;28;20417;-62
2023/02/27 13:27:07;;;;;;;3.00;1.37;;;6.90;82.00;;;;;;5098238;28;20434;-61
2023/02/27 13:29:38;;;;;;;1.93;1.30;;;6.90;85.60;;;;;;5097471;28;20845;-62
2023/02/27 13:32:19;;;;;;;1.70;0.90;;;6.90;87.80;;;;;;5097417;28;20458;-64